sensor_id;sensor_type;location;lat;lon;timestamp;P1;durP1;ratioP1;P2;durP2;ratioP2
15567;SDS011;7885;42.596;23.044;2024-01-25T00:01:16;35.10;;;23.63;;
15567;SDS011;7885;42.596;23.044;2024-01-25T00:03:43;31.40;;;23.27;;
15567;SDS011;7885;42.596;23.044;2024-01-25T00:06:10;34.63;;;23.70;;
15567;SDS011;7885;42.596;23.044;2024-01-25T00:08:37;30.73;;;23.63;;
15567;SDS011;7885;42.596;23.044;2024-01-25T00:11:04;32.00;;;22.40;;
15567;SDS011;7885;42.596;23.044;2024-01-25T00:13:30;43.97;;;30.53;;
15567;SDS011;7885;42.596;23.044;2024-01-25T00:15:59;43.97;;;31.27;;
15567;SDS011;7885;42.596;23.044;2024-01-25T00:18:25;32.73;;;23.53;;
15567;SDS011;7885;42.596;23.044;2024-01-25T00:20:54;35.27;;;23.47;;
15567;SDS011;7885;42.596;23.044;2024-01-25T00:23:21;32.67;;;21.40;;
15567;SDS011;7885;42.596;23.044;2024-01-25T00:25:48;30.50;;;19.67;;
15567;SDS011;7885;42.596;23.044;2024-01-25T00:28:15;32.77;;;20.07;;
15567;SDS011;7885;42.596;23.044;2024-01-25T00:30:42;30.23;;;18.90;;
15567;SDS011;7885;42.596;23.044;2024-01-25T00:33:10;29.30;;;18.90;;
15567;SDS011;7885;42.596;23.044;2024-01-25T00:38:29;47.27;;;29.40;;
15567;SDS011;7885;42.596;23.044;2024-01-25T00:40:56;31.60;;;20.27;;
15567;SDS011;7885;42.596;23.044;2024-01-25T00:43:23;27.47;;;18.80;;
15567;SDS011;7885;42.596;23.044;2024-01-25T00:45:50;30.63;;;20.50;;
15567;SDS011;7885;42.596;23.044;2024-01-25T00:48:19;37.30;;;22.37;;
15567;SDS011;7885;42.596;23.044;2024-01-25T00:50:47;38.03;;;25.60;;
15567;SDS011;7885;42.596;23.044;2024-01-25T00:53:14;38.17;;;24.80;;
15567;SDS011;7885;42.596;23.044;2024-01-25T00:55:41;55.03;;;33.30;;
15567;SDS011;7885;42.596;23.044;2024-01-25T00:58:08;40.17;;;25.67;;
15567;SDS011;7885;42.596;23.044;2024-01-25T01:00:36;36.20;;;23.67;;
15567;SDS011;7885;42.596;23.044;2024-01-25T01:03:03;38.57;;;24.83;;
15567;SDS011;7885;42.596;23.044;2024-01-25T01:05:32;45.43;;;27.77;;
15567;SDS011;7885;42.596;23.044;2024-01-25T01:07:59;49.83;;;30.67;;
15567;SDS011;7885;42.596;23.044;2024-01-25T01:10:26;53.70;;;31.43;;
15567;SDS011;7885;42.596;23.044;2024-01-25T01:12:53;50.60;;;31.43;;
15567;SDS011;7885;42.596;23.044;2024-01-25T01:15:19;53.73;;;32.77;;
15567;SDS011;7885;42.596;23.044;2024-01-25T01:17:46;46.37;;;29.20;;
15567;SDS011;7885;42.596;23.044;2024-01-25T01:20:13;42.13;;;28.40;;
15567;SDS011;7885;42.596;23.044;2024-01-25T01:22:41;47.13;;;29.83;;
15567;SDS011;7885;42.596;23.044;2024-01-25T01:25:08;45.83;;;31.37;;
15567;SDS011;7885;42.596;23.044;2024-01-25T01:27:35;58.00;;;35.87;;
15567;SDS011;7885;42.596;23.044;2024-01-25T01:30:02;49.57;;;32.63;;
15567;SDS011;7885;42.596;23.044;2024-01-25T01:32:30;53.77;;;33.10;;
15567;SDS011;7885;42.596;23.044;2024-01-25T01:34:56;49.37;;;32.20;;
15567;SDS011;7885;42.596;23.044;2024-01-25T01:37:23;46.77;;;30.30;;
15567;SDS011;7885;42.596;23.044;2024-01-25T01:39:51;42.97;;;28.07;;
15567;SDS011;7885;42.596;23.044;2024-01-25T01:42:20;43.07;;;26.47;;
15567;SDS011;7885;42.596;23.044;2024-01-25T01:44:47;42.57;;;27.87;;
15567;SDS011;7885;42.596;23.044;2024-01-25T01:47:15;46.50;;;29.57;;
15567;SDS011;7885;42.596;23.044;2024-01-25T01:49:42;43.60;;;28.13;;
15567;SDS011;7885;42.596;23.044;2024-01-25T01:52:09;52.27;;;31.17;;
15567;SDS011;7885;42.596;23.044;2024-01-25T01:54:37;50.47;;;29.23;;
15567;SDS011;7885;42.596;23.044;2024-01-25T01:57:06;50.23;;;27.90;;
15567;SDS011;7885;42.596;23.044;2024-01-25T01:59:34;45.13;;;27.67;;
15567;SDS011;7885;42.596;23.044;2024-01-25T02:02:01;47.97;;;28.63;;
15567;SDS011;7885;42.596;23.044;2024-01-25T02:04:28;45.07;;;30.13;;
15567;SDS011;7885;42.596;23.044;2024-01-25T02:06:54;48.37;;;26.63;;
15567;SDS011;7885;42.596;23.044;2024-01-25T02:09:21;44.43;;;29.40;;
15567;SDS011;7885;42.596;23.044;2024-01-25T02:11:58;46.73;;;30.27;;
15567;SDS011;7885;42.596;23.044;2024-01-25T02:14:26;52.60;;;32.40;;
15567;SDS011;7885;42.596;23.044;2024-01-25T02:16:53;60.33;;;35.13;;
15567;SDS011;7885;42.596;23.044;2024-01-25T02:19:20;59.97;;;34.63;;
15567;SDS011;7885;42.596;23.044;2024-01-25T02:21:46;66.60;;;42.27;;
15567;SDS011;7885;42.596;23.044;2024-01-25T02:24:15;70.17;;;45.63;;
15567;SDS011;7885;42.596;23.044;2024-01-25T02:26:42;63.27;;;40.17;;
15567;SDS011;7885;42.596;23.044;2024-01-25T02:29:09;63.43;;;42.67;;
15567;SDS011;7885;42.596;23.044;2024-01-25T02:31:35;45.37;;;32.93;;
15567;SDS011;7885;42.596;23.044;2024-01-25T02:34:02;40.13;;;27.67;;
15567;SDS011;7885;42.596;23.044;2024-01-25T02:36:29;31.03;;;22.73;;
15567;SDS011;7885;42.596;23.044;2024-01-25T02:38:55;32.73;;;23.27;;
15567;SDS011;7885;42.596;23.044;2024-01-25T02:41:24;33.57;;;24.20;;
15567;SDS011;7885;42.596;23.044;2024-01-25T02:43:50;29.30;;;22.53;;
15567;SDS011;7885;42.596;23.044;2024-01-25T02:46:17;32.07;;;23.90;;
15567;SDS011;7885;42.596;23.044;2024-01-25T02:48:45;37.23;;;25.50;;
15567;SDS011;7885;42.596;23.044;2024-01-25T02:51:12;33.13;;;25.37;;
15567;SDS011;7885;42.596;23.044;2024-01-25T02:53:39;36.10;;;25.83;;
15567;SDS011;7885;42.596;23.044;2024-01-25T02:56:06;30.97;;;23.00;;
15567;SDS011;7885;42.596;23.044;2024-01-25T02:58:34;26.07;;;19.93;;
15567;SDS011;7885;42.596;23.044;2024-01-25T03:01:01;30.27;;;21.70;;
15567;SDS011;7885;42.596;23.044;2024-01-25T03:03:28;30.87;;;23.23;;
15567;SDS011;7885;42.596;23.044;2024-01-25T03:05:55;43.07;;;30.60;;
15567;SDS011;7885;42.596;23.044;2024-01-25T03:08:21;36.70;;;27.10;;
15567;SDS011;7885;42.596;23.044;2024-01-25T03:10:48;32.57;;;23.13;;
15567;SDS011;7885;42.596;23.044;2024-01-25T03:13:15;34.37;;;25.57;;
15567;SDS011;7885;42.596;23.044;2024-01-25T03:15:43;32.47;;;25.43;;
15567;SDS011;7885;42.596;23.044;2024-01-25T03:18:10;31.83;;;23.33;;
15567;SDS011;7885;42.596;23.044;2024-01-25T03:20:37;35.80;;;25.60;;
15567;SDS011;7885;42.596;23.044;2024-01-25T03:23:04;34.93;;;25.30;;
15567;SDS011;7885;42.596;23.044;2024-01-25T03:25:30;35.37;;;26.23;;
15567;SDS011;7885;42.596;23.044;2024-01-25T03:27:57;34.20;;;23.07;;
15567;SDS011;7885;42.596;23.044;2024-01-25T03:30:24;48.43;;;36.93;;
15567;SDS011;7885;42.596;23.044;2024-01-25T03:32:52;37.10;;;24.83;;
15567;SDS011;7885;42.596;23.044;2024-01-25T03:35:19;45.67;;;28.87;;
15567;SDS011;7885;42.596;23.044;2024-01-25T03:37:45;54.97;;;36.03;;
15567;SDS011;7885;42.596;23.044;2024-01-25T03:40:12;48.60;;;31.57;;
15567;SDS011;7885;42.596;23.044;2024-01-25T03:42:39;40.43;;;26.80;;
15567;SDS011;7885;42.596;23.044;2024-01-25T03:45:06;38.97;;;27.03;;
15567;SDS011;7885;42.596;23.044;2024-01-25T03:47:33;38.63;;;26.57;;
15567;SDS011;7885;42.596;23.044;2024-01-25T03:50:02;40.47;;;28.57;;
15567;SDS011;7885;42.596;23.044;2024-01-25T03:52:29;46.10;;;30.43;;
15567;SDS011;7885;42.596;23.044;2024-01-25T03:54:55;41.13;;;29.97;;
15567;SDS011;7885;42.596;23.044;2024-01-25T03:57:22;42.00;;;28.07;;
15567;SDS011;7885;42.596;23.044;2024-01-25T03:59:49;37.83;;;26.40;;
15567;SDS011;7885;42.596;23.044;2024-01-25T04:02:16;33.67;;;24.93;;
15567;SDS011;7885;42.596;23.044;2024-01-25T04:04:43;35.60;;;24.30;;
15567;SDS011;7885;42.596;23.044;2024-01-25T04:07:11;39.63;;;26.20;;
15567;SDS011;7885;42.596;23.044;2024-01-25T04:09:38;38.47;;;27.90;;
15567;SDS011;7885;42.596;23.044;2024-01-25T04:12:06;40.17;;;30.00;;
15567;SDS011;7885;42.596;23.044;2024-01-25T04:14:32;40.67;;;24.87;;
15567;SDS011;7885;42.596;23.044;2024-01-25T04:16:59;29.30;;;18.83;;
15567;SDS011;7885;42.596;23.044;2024-01-25T04:19:26;29.17;;;17.03;;
15567;SDS011;7885;42.596;23.044;2024-01-25T04:21:53;29.53;;;17.70;;
15567;SDS011;7885;42.596;23.044;2024-01-25T04:24:21;32.43;;;20.07;;
15567;SDS011;7885;42.596;23.044;2024-01-25T04:26:48;36.60;;;25.53;;
15567;SDS011;7885;42.596;23.044;2024-01-25T04:29:15;43.80;;;29.57;;
15567;SDS011;7885;42.596;23.044;2024-01-25T04:31:44;41.13;;;27.97;;
15567;SDS011;7885;42.596;23.044;2024-01-25T04:52:05;52.87;;;32.40;;
15567;SDS011;7885;42.596;23.044;2024-01-25T04:54:32;48.97;;;33.67;;
15567;SDS011;7885;42.596;23.044;2024-01-25T04:56:59;52.63;;;36.30;;
15567;SDS011;7885;42.596;23.044;2024-01-25T04:59:26;54.83;;;37.43;;
15567;SDS011;7885;42.596;23.044;2024-01-25T05:01:53;66.20;;;42.03;;
15567;SDS011;7885;42.596;23.044;2024-01-25T05:04:22;77.17;;;48.77;;
15567;SDS011;7885;42.596;23.044;2024-01-25T05:06:49;83.33;;;50.13;;
15567;SDS011;7885;42.596;23.044;2024-01-25T05:09:17;51.70;;;36.10;;
15567;SDS011;7885;42.596;23.044;2024-01-25T05:11:44;60.77;;;39.07;;
15567;SDS011;7885;42.596;23.044;2024-01-25T05:14:11;51.57;;;35.57;;
15567;SDS011;7885;42.596;23.044;2024-01-25T05:16:37;53.87;;;35.37;;
15567;SDS011;7885;42.596;23.044;2024-01-25T05:19:04;65.10;;;42.83;;
15567;SDS011;7885;42.596;23.044;2024-01-25T05:21:31;53.77;;;35.37;;
15567;SDS011;7885;42.596;23.044;2024-01-25T05:23:58;46.93;;;32.27;;
15567;SDS011;7885;42.596;23.044;2024-01-25T05:26:26;109.60;;;64.13;;
15567;SDS011;7885;42.596;23.044;2024-01-25T05:28:53;96.33;;;52.57;;
15567;SDS011;7885;42.596;23.044;2024-01-25T05:31:19;63.70;;;39.40;;
15567;SDS011;7885;42.596;23.044;2024-01-25T05:33:46;60.37;;;37.93;;
15567;SDS011;7885;42.596;23.044;2024-01-25T05:36:13;66.67;;;41.43;;
15567;SDS011;7885;42.596;23.044;2024-01-25T05:38:39;132.30;;;89.27;;
15567;SDS011;7885;42.596;23.044;2024-01-25T05:41:06;44.20;;;31.07;;
15567;SDS011;7885;42.596;23.044;2024-01-25T05:43:34;58.23;;;37.27;;
15567;SDS011;7885;42.596;23.044;2024-01-25T05:46:01;66.27;;;46.23;;
15567;SDS011;7885;42.596;23.044;2024-01-25T05:48:28;78.90;;;50.83;;
15567;SDS011;7885;42.596;23.044;2024-01-25T05:50:55;89.70;;;54.20;;
15567;SDS011;7885;42.596;23.044;2024-01-25T05:53:22;79.10;;;52.10;;
15567;SDS011;7885;42.596;23.044;2024-01-25T05:55:48;62.53;;;43.00;;
15567;SDS011;7885;42.596;23.044;2024-01-25T05:58:15;55.33;;;36.73;;
15567;SDS011;7885;42.596;23.044;2024-01-25T06:00:43;56.40;;;39.33;;
15567;SDS011;7885;42.596;23.044;2024-01-25T06:03:10;63.47;;;43.47;;
15567;SDS011;7885;42.596;23.044;2024-01-25T06:05:37;64.20;;;46.20;;
15567;SDS011;7885;42.596;23.044;2024-01-25T06:08:04;66.33;;;45.40;;
15567;SDS011;7885;42.596;23.044;2024-01-25T06:10:30;54.40;;;36.03;;
15567;SDS011;7885;42.596;23.044;2024-01-25T06:12:57;58.07;;;37.53;;
15567;SDS011;7885;42.596;23.044;2024-01-25T06:15:24;57.47;;;39.80;;
15567;SDS011;7885;42.596;23.044;2024-01-25T06:17:52;62.80;;;44.00;;
15567;SDS011;7885;42.596;23.044;2024-01-25T06:20:19;73.23;;;50.30;;
15567;SDS011;7885;42.596;23.044;2024-01-25T06:22:45;77.77;;;51.57;;
15567;SDS011;7885;42.596;23.044;2024-01-25T06:25:12;60.27;;;40.23;;
15567;SDS011;7885;42.596;23.044;2024-01-25T06:27:39;75.97;;;47.33;;
15567;SDS011;7885;42.596;23.044;2024-01-25T06:30:06;95.50;;;64.33;;
15567;SDS011;7885;42.596;23.044;2024-01-25T06:32:34;90.30;;;60.37;;
15567;SDS011;7885;42.596;23.044;2024-01-25T06:35:02;83.53;;;55.97;;
15567;SDS011;7885;42.596;23.044;2024-01-25T06:37:29;81.03;;;53.23;;
15567;SDS011;7885;42.596;23.044;2024-01-25T06:39:56;73.63;;;51.07;;
15567;SDS011;7885;42.596;23.044;2024-01-25T06:42:22;73.17;;;47.03;;
15567;SDS011;7885;42.596;23.044;2024-01-25T06:44:49;78.60;;;50.73;;
15567;SDS011;7885;42.596;23.044;2024-01-25T06:47:16;68.80;;;47.13;;
15567;SDS011;7885;42.596;23.044;2024-01-25T06:49:43;81.73;;;56.27;;
15567;SDS011;7885;42.596;23.044;2024-01-25T06:52:14;80.07;;;53.90;;
15567;SDS011;7885;42.596;23.044;2024-01-25T06:54:41;83.07;;;58.03;;
15567;SDS011;7885;42.596;23.044;2024-01-25T06:57:07;67.63;;;49.67;;
15567;SDS011;7885;42.596;23.044;2024-01-25T06:59:34;64.03;;;48.37;;
15567;SDS011;7885;42.596;23.044;2024-01-25T07:02:01;31.73;;;21.83;;
15567;SDS011;7885;42.596;23.044;2024-01-25T07:04:28;34.93;;;27.27;;
15567;SDS011;7885;42.596;23.044;2024-01-25T07:06:55;10.97;;;8.10;;
15567;SDS011;7885;42.596;23.044;2024-01-25T07:09:23;18.30;;;12.60;;
15567;SDS011;7885;42.596;23.044;2024-01-25T07:11:49;6.17;;;3.27;;
15567;SDS011;7885;42.596;23.044;2024-01-25T07:17:38;7.57;;;4.37;;
15567;SDS011;7885;42.596;23.044;2024-01-25T07:20:06;21.47;;;12.30;;
15567;SDS011;7885;42.596;23.044;2024-01-25T07:22:34;36.37;;;24.47;;
15567;SDS011;7885;42.596;23.044;2024-01-25T07:25:02;53.03;;;33.57;;
15567;SDS011;7885;42.596;23.044;2024-01-25T07:27:29;40.67;;;28.50;;
15567;SDS011;7885;42.596;23.044;2024-01-25T07:29:56;40.03;;;28.63;;
15567;SDS011;7885;42.596;23.044;2024-01-25T07:32:23;79.63;;;51.30;;
15567;SDS011;7885;42.596;23.044;2024-01-25T07:34:50;31.07;;;21.73;;
15567;SDS011;7885;42.596;23.044;2024-01-25T07:37:16;43.60;;;27.60;;
15567;SDS011;7885;42.596;23.044;2024-01-25T07:39:44;34.83;;;23.00;;
15567;SDS011;7885;42.596;23.044;2024-01-25T07:42:12;28.17;;;17.90;;
15567;SDS011;7885;42.596;23.044;2024-01-25T07:44:39;21.27;;;13.20;;
15567;SDS011;7885;42.596;23.044;2024-01-25T07:47:05;26.27;;;18.63;;
15567;SDS011;7885;42.596;23.044;2024-01-25T07:49:32;30.13;;;21.43;;
15567;SDS011;7885;42.596;23.044;2024-01-25T07:51:59;49.40;;;35.67;;
15567;SDS011;7885;42.596;23.044;2024-01-25T07:54:26;54.87;;;39.90;;
15567;SDS011;7885;42.596;23.044;2024-01-25T07:56:52;50.43;;;36.07;;
15567;SDS011;7885;42.596;23.044;2024-01-25T07:59:20;252.90;;;148.80;;
15567;SDS011;7885;42.596;23.044;2024-01-25T08:01:47;155.37;;;94.17;;
15567;SDS011;7885;42.596;23.044;2024-01-25T08:04:14;76.57;;;49.43;;
15567;SDS011;7885;42.596;23.044;2024-01-25T08:06:41;78.27;;;53.13;;
15567;SDS011;7885;42.596;23.044;2024-01-25T08:09:07;124.63;;;77.03;;
15567;SDS011;7885;42.596;23.044;2024-01-25T08:11:35;121.83;;;75.20;;
15567;SDS011;7885;42.596;23.044;2024-01-25T08:14:01;61.83;;;41.77;;
15567;SDS011;7885;42.596;23.044;2024-01-25T08:16:30;27.77;;;19.30;;
15567;SDS011;7885;42.596;23.044;2024-01-25T08:18:56;33.83;;;20.67;;
15567;SDS011;7885;42.596;23.044;2024-01-25T08:21:24;58.10;;;36.13;;
15567;SDS011;7885;42.596;23.044;2024-01-25T08:23:51;92.13;;;54.90;;
15567;SDS011;7885;42.596;23.044;2024-01-25T08:26:18;132.83;;;83.17;;
15567;SDS011;7885;42.596;23.044;2024-01-25T08:28:46;126.40;;;82.20;;
15567;SDS011;7885;42.596;23.044;2024-01-25T08:31:13;116.43;;;78.10;;
15567;SDS011;7885;42.596;23.044;2024-01-25T08:33:41;108.80;;;73.00;;
15567;SDS011;7885;42.596;23.044;2024-01-25T08:36:12;150.03;;;95.67;;
15567;SDS011;7885;42.596;23.044;2024-01-25T08:38:39;184.07;;;105.40;;
15567;SDS011;7885;42.596;23.044;2024-01-25T08:41:05;106.90;;;66.33;;
15567;SDS011;7885;42.596;23.044;2024-01-25T08:43:32;94.03;;;58.77;;
15567;SDS011;7885;42.596;23.044;2024-01-25T08:46:00;94.67;;;60.17;;
15567;SDS011;7885;42.596;23.044;2024-01-25T08:48:27;47.67;;;31.27;;
15567;SDS011;7885;42.596;23.044;2024-01-25T08:50:55;44.77;;;31.03;;
15567;SDS011;7885;42.596;23.044;2024-01-25T08:53:21;42.63;;;28.20;;
15567;SDS011;7885;42.596;23.044;2024-01-25T08:55:52;11.77;;;6.03;;
15567;SDS011;7885;42.596;23.044;2024-01-25T08:58:19;21.37;;;12.30;;
15567;SDS011;7885;42.596;23.044;2024-01-25T09:00:45;35.67;;;22.67;;
15567;SDS011;7885;42.596;23.044;2024-01-25T09:03:12;25.07;;;16.83;;
15567;SDS011;7885;42.596;23.044;2024-01-25T09:05:39;18.13;;;11.93;;
15567;SDS011;7885;42.596;23.044;2024-01-25T09:08:11;8.63;;;5.47;;
15567;SDS011;7885;42.596;23.044;2024-01-25T09:10:40;9.37;;;5.57;;
15567;SDS011;7885;42.596;23.044;2024-01-25T09:13:08;12.10;;;7.80;;
15567;SDS011;7885;42.596;23.044;2024-01-25T09:15:35;13.33;;;7.07;;
15567;SDS011;7885;42.596;23.044;2024-01-25T09:18:02;13.13;;;8.33;;
15567;SDS011;7885;42.596;23.044;2024-01-25T09:20:29;18.47;;;11.60;;
15567;SDS011;7885;42.596;23.044;2024-01-25T09:22:56;24.93;;;17.20;;
15567;SDS011;7885;42.596;23.044;2024-01-25T09:25:24;30.50;;;20.33;;
15567;SDS011;7885;42.596;23.044;2024-01-25T09:27:51;24.43;;;15.50;;
15567;SDS011;7885;42.596;23.044;2024-01-25T09:30:18;16.43;;;10.00;;
15567;SDS011;7885;42.596;23.044;2024-01-25T09:32:45;18.30;;;9.97;;
15567;SDS011;7885;42.596;23.044;2024-01-25T09:41:56;27.10;;;16.10;;
15567;SDS011;7885;42.596;23.044;2024-01-25T09:44:23;12.73;;;8.40;;
15567;SDS011;7885;42.596;23.044;2024-01-25T09:46:50;13.93;;;8.17;;
15567;SDS011;7885;42.596;23.044;2024-01-25T09:49:17;13.73;;;9.17;;
15567;SDS011;7885;42.596;23.044;2024-01-25T09:51:44;15.33;;;9.20;;
15567;SDS011;7885;42.596;23.044;2024-01-25T09:54:11;25.50;;;14.00;;
15567;SDS011;7885;42.596;23.044;2024-01-25T09:56:39;22.60;;;12.23;;
15567;SDS011;7885;42.596;23.044;2024-01-25T09:59:09;13.13;;;7.73;;
15567;SDS011;7885;42.596;23.044;2024-01-25T10:01:37;39.70;;;22.30;;
15567;SDS011;7885;42.596;23.044;2024-01-25T10:04:13;26.80;;;16.00;;
15567;SDS011;7885;42.596;23.044;2024-01-25T10:06:40;38.67;;;21.10;;
15567;SDS011;7885;42.596;23.044;2024-01-25T10:09:07;25.57;;;14.47;;
15567;SDS011;7885;42.596;23.044;2024-01-25T10:11:35;24.93;;;13.93;;
15567;SDS011;7885;42.596;23.044;2024-01-25T10:14:02;25.20;;;15.87;;
15567;SDS011;7885;42.596;23.044;2024-01-25T10:16:30;23.97;;;14.40;;
15567;SDS011;7885;42.596;23.044;2024-01-25T10:18:57;17.27;;;10.23;;
15567;SDS011;7885;42.596;23.044;2024-01-25T10:21:24;14.17;;;8.00;;
15567;SDS011;7885;42.596;23.044;2024-01-25T10:23:52;12.17;;;7.10;;
15567;SDS011;7885;42.596;23.044;2024-01-25T10:26:19;12.13;;;6.73;;
15567;SDS011;7885;42.596;23.044;2024-01-25T10:28:50;8.70;;;5.60;;
15567;SDS011;7885;42.596;23.044;2024-01-25T10:31:18;11.40;;;8.63;;
15567;SDS011;7885;42.596;23.044;2024-01-25T10:33:46;15.90;;;10.70;;
15567;SDS011;7885;42.596;23.044;2024-01-25T10:36:13;9.13;;;4.30;;
15567;SDS011;7885;42.596;23.044;2024-01-25T10:38:40;5.97;;;3.83;;
15567;SDS011;7885;42.596;23.044;2024-01-25T10:41:10;14.20;;;6.93;;
15567;SDS011;7885;42.596;23.044;2024-01-25T10:43:39;28.73;;;18.77;;
15567;SDS011;7885;42.596;23.044;2024-01-25T10:46:07;35.13;;;24.33;;
15567;SDS011;7885;42.596;23.044;2024-01-25T10:48:34;33.73;;;23.37;;
15567;SDS011;7885;42.596;23.044;2024-01-25T10:51:02;35.53;;;21.73;;
15567;SDS011;7885;42.596;23.044;2024-01-25T10:53:31;39.10;;;24.37;;
15567;SDS011;7885;42.596;23.044;2024-01-25T10:55:59;27.77;;;14.43;;
15567;SDS011;7885;42.596;23.044;2024-01-25T11:01:48;26.33;;;17.13;;
15567;SDS011;7885;42.596;23.044;2024-01-25T11:04:15;18.60;;;11.63;;
15567;SDS011;7885;42.596;23.044;2024-01-25T11:06:45;15.23;;;9.70;;
15567;SDS011;7885;42.596;23.044;2024-01-25T11:09:16;17.23;;;9.73;;
15567;SDS011;7885;42.596;23.044;2024-01-25T11:11:54;18.13;;;10.93;;
15567;SDS011;7885;42.596;23.044;2024-01-25T11:14:21;11.00;;;6.30;;
15567;SDS011;7885;42.596;23.044;2024-01-25T11:16:47;10.53;;;6.87;;
15567;SDS011;7885;42.596;23.044;2024-01-25T11:19:18;7.37;;;4.23;;
15567;SDS011;7885;42.596;23.044;2024-01-25T11:21:47;7.37;;;4.27;;
15567;SDS011;7885;42.596;23.044;2024-01-25T11:24:15;11.70;;;7.00;;
15567;SDS011;7885;42.596;23.044;2024-01-25T11:26:43;8.10;;;4.30;;
15567;SDS011;7885;42.596;23.044;2024-01-25T11:29:12;5.57;;;3.10;;
15567;SDS011;7885;42.596;23.044;2024-01-25T11:31:41;7.33;;;3.67;;
15567;SDS011;7885;42.596;23.044;2024-01-25T11:34:09;24.63;;;16.03;;
15567;SDS011;7885;42.596;23.044;2024-01-25T11:36:37;27.73;;;20.93;;
15567;SDS011;7885;42.596;23.044;2024-01-25T11:39:05;17.37;;;11.13;;
15567;SDS011;7885;42.596;23.044;2024-01-25T11:41:32;16.40;;;11.23;;
15567;SDS011;7885;42.596;23.044;2024-01-25T11:43:59;14.00;;;8.13;;
15567;SDS011;7885;42.596;23.044;2024-01-25T11:49:50;16.13;;;9.17;;
15567;SDS011;7885;42.596;23.044;2024-01-25T11:52:16;21.87;;;11.27;;
15567;SDS011;7885;42.596;23.044;2024-01-25T11:54:44;16.70;;;11.10;;
15567;SDS011;7885;42.596;23.044;2024-01-25T11:57:11;309.03;;;22.87;;
15567;SDS011;7885;42.596;23.044;2024-01-25T11:59:38;13.77;;;8.73;;
15567;SDS011;7885;42.596;23.044;2024-01-25T12:02:05;11.53;;;4.83;;
15567;SDS011;7885;42.596;23.044;2024-01-25T12:04:32;14.20;;;9.40;;
15567;SDS011;7885;42.596;23.044;2024-01-25T12:06:59;8.23;;;4.00;;
15567;SDS011;7885;42.596;23.044;2024-01-25T12:09:26;13.27;;;5.30;;
15567;SDS011;7885;42.596;23.044;2024-01-25T12:11:54;12.10;;;5.47;;
15567;SDS011;7885;42.596;23.044;2024-01-25T12:14:21;6.20;;;3.80;;
15567;SDS011;7885;42.596;23.044;2024-01-25T12:16:50;17.47;;;9.00;;
15567;SDS011;7885;42.596;23.044;2024-01-25T12:19:16;5.37;;;3.10;;
15567;SDS011;7885;42.596;23.044;2024-01-25T12:21:43;11.53;;;5.73;;
15567;SDS011;7885;42.596;23.044;2024-01-25T12:24:10;11.67;;;4.67;;
15567;SDS011;7885;42.596;23.044;2024-01-25T12:26:37;9.23;;;4.80;;
15567;SDS011;7885;42.596;23.044;2024-01-25T12:29:05;11.77;;;6.50;;
15567;SDS011;7885;42.596;23.044;2024-01-25T12:31:36;10.73;;;5.47;;
15567;SDS011;7885;42.596;23.044;2024-01-25T12:34:02;11.83;;;5.73;;
15567;SDS011;7885;42.596;23.044;2024-01-25T12:36:30;11.40;;;5.97;;
15567;SDS011;7885;42.596;23.044;2024-01-25T12:38:59;10.83;;;5.37;;
15567;SDS011;7885;42.596;23.044;2024-01-25T12:41:25;10.83;;;5.60;;
15567;SDS011;7885;42.596;23.044;2024-01-25T12:43:52;10.27;;;6.13;;
15567;SDS011;7885;42.596;23.044;2024-01-25T12:46:20;8.73;;;5.57;;
15567;SDS011;7885;42.596;23.044;2024-01-25T12:48:47;12.70;;;6.50;;
15567;SDS011;7885;42.596;23.044;2024-01-25T12:51:14;10.70;;;6.03;;
15567;SDS011;7885;42.596;23.044;2024-01-25T12:53:40;8.87;;;4.60;;
15567;SDS011;7885;42.596;23.044;2024-01-25T12:56:07;9.57;;;5.57;;
15567;SDS011;7885;42.596;23.044;2024-01-25T12:58:34;10.10;;;6.77;;
15567;SDS011;7885;42.596;23.044;2024-01-25T13:01:01;12.83;;;6.77;;
15567;SDS011;7885;42.596;23.044;2024-01-25T13:03:29;11.40;;;6.50;;
15567;SDS011;7885;42.596;23.044;2024-01-25T13:05:55;8.87;;;4.87;;
15567;SDS011;7885;42.596;23.044;2024-01-25T13:08:22;8.67;;;4.53;;
15567;SDS011;7885;42.596;23.044;2024-01-25T13:10:49;10.70;;;5.60;;
15567;SDS011;7885;42.596;23.044;2024-01-25T13:13:15;10.23;;;4.40;;
15567;SDS011;7885;42.596;23.044;2024-01-25T13:15:42;8.07;;;3.70;;
15567;SDS011;7885;42.596;23.044;2024-01-25T13:18:09;8.50;;;4.47;;
15567;SDS011;7885;42.596;23.044;2024-01-25T13:20:37;9.03;;;4.67;;
15567;SDS011;7885;42.596;23.044;2024-01-25T13:23:04;13.20;;;7.70;;
15567;SDS011;7885;42.596;23.044;2024-01-25T13:25:31;12.53;;;5.37;;
15567;SDS011;7885;42.596;23.044;2024-01-25T13:27:58;10.80;;;5.97;;
15567;SDS011;7885;42.596;23.044;2024-01-25T13:30:25;16.73;;;9.93;;
15567;SDS011;7885;42.596;23.044;2024-01-25T13:32:51;10.63;;;6.00;;
15567;SDS011;7885;42.596;23.044;2024-01-25T13:35:18;12.10;;;6.20;;
15567;SDS011;7885;42.596;23.044;2024-01-25T13:37:46;12.63;;;7.50;;
15567;SDS011;7885;42.596;23.044;2024-01-25T13:40:13;11.17;;;6.50;;
15567;SDS011;7885;42.596;23.044;2024-01-25T13:42:40;14.67;;;7.27;;
15567;SDS011;7885;42.596;23.044;2024-01-25T13:45:07;14.63;;;7.07;;
15567;SDS011;7885;42.596;23.044;2024-01-25T13:47:34;10.37;;;5.20;;
15567;SDS011;7885;42.596;23.044;2024-01-25T13:50:00;12.57;;;6.60;;
15567;SDS011;7885;42.596;23.044;2024-01-25T13:52:27;17.53;;;10.07;;
15567;SDS011;7885;42.596;23.044;2024-01-25T13:54:55;10.80;;;6.40;;
15567;SDS011;7885;42.596;23.044;2024-01-25T13:57:22;10.63;;;5.63;;
15567;SDS011;7885;42.596;23.044;2024-01-25T13:59:49;9.63;;;4.83;;
15567;SDS011;7885;42.596;23.044;2024-01-25T14:02:16;11.40;;;5.37;;
15567;SDS011;7885;42.596;23.044;2024-01-25T14:04:42;12.80;;;6.17;;
15567;SDS011;7885;42.596;23.044;2024-01-25T14:07:09;12.93;;;6.83;;
15567;SDS011;7885;42.596;23.044;2024-01-25T14:09:36;11.50;;;7.37;;
15567;SDS011;7885;42.596;23.044;2024-01-25T14:12:05;22.53;;;12.17;;
15567;SDS011;7885;42.596;23.044;2024-01-25T14:14:32;18.37;;;10.37;;
15567;SDS011;7885;42.596;23.044;2024-01-25T14:16:59;16.63;;;10.30;;
15567;SDS011;7885;42.596;23.044;2024-01-25T14:19:25;15.03;;;9.03;;
15567;SDS011;7885;42.596;23.044;2024-01-25T14:21:52;15.43;;;8.90;;
15567;SDS011;7885;42.596;23.044;2024-01-25T14:24:19;9.37;;;5.67;;
15567;SDS011;7885;42.596;23.044;2024-01-25T14:26:46;11.40;;;6.20;;
15567;SDS011;7885;42.596;23.044;2024-01-25T14:29:14;10.80;;;5.40;;
15567;SDS011;7885;42.596;23.044;2024-01-25T14:31:40;13.00;;;6.73;;
15567;SDS011;7885;42.596;23.044;2024-01-25T14:34:07;8.33;;;4.43;;
15567;SDS011;7885;42.596;23.044;2024-01-25T14:36:35;8.03;;;4.17;;
15567;SDS011;7885;42.596;23.044;2024-01-25T14:39:02;10.97;;;4.80;;
15567;SDS011;7885;42.596;23.044;2024-01-25T14:41:29;11.63;;;5.40;;
15567;SDS011;7885;42.596;23.044;2024-01-25T14:43:56;16.47;;;7.37;;
15567;SDS011;7885;42.596;23.044;2024-01-25T14:46:24;12.83;;;5.83;;
15567;SDS011;7885;42.596;23.044;2024-01-25T14:48:51;12.40;;;6.13;;
15567;SDS011;7885;42.596;23.044;2024-01-25T14:51:18;13.00;;;6.57;;
15567;SDS011;7885;42.596;23.044;2024-01-25T14:53:45;10.30;;;6.77;;
15567;SDS011;7885;42.596;23.044;2024-01-25T14:56:11;10.53;;;6.10;;
15567;SDS011;7885;42.596;23.044;2024-01-25T14:58:38;11.53;;;8.40;;
15567;SDS011;7885;42.596;23.044;2024-01-25T15:01:05;11.67;;;7.47;;
15567;SDS011;7885;42.596;23.044;2024-01-25T15:03:33;10.87;;;7.43;;